Time;durP1;ratioP1;P1;durP2;ratioP2;P2;SDS_P1;SDS_P2;PMS_P1;PMS_P2;Temp;Humidity;BMP_temperature;BMP_pressure;BME280_temperature;BME280_humidity;BME280_pressure;Samples;Min_cycle;Max_cycle;Signal;HPM_P1;HPM_P2
2021/05/18 00:00:44;;;;;;;5.60;4.90;;;11.70;99.90;;;;;;4969823;28;20439;-76
2021/05/18 00:03:15;;;;;;;7.27;4.80;;;11.70;99.90;;;;;;4971218;28;20525;-74
2021/05/18 00:05:47;;;;;;;4.87;4.37;;;11.60;99.90;;;;;;4955338;28;20957;-73
2021/05/18 00:08:15;;;;;;;5.13;4.57;;;11.60;99.90;;;;;;4936488;28;20559;-73
2021/05/18 00:13:34;;;;;;;7.30;4.07;;;11.60;99.90;;;;;;4981455;28;20490;-75
2021/05/18 00:16:04;;;;;;;3.20;2.90;;;11.60;99.90;;;;;;4953183;28;20490;-77
2021/05/18 00:18:32;;;;;;;3.70;2.63;;;11.60;99.90;;;;;;4953643;28;20567;-73
2021/05/18 00:20:59;;;;;;;3.10;2.63;;;11.60;99.90;;;;;;4972424;28;20526;-77
2021/05/18 00:23:26;;;;;;;2.67;2.47;;;11.60;99.90;;;;;;4955098;28;20471;-76
2021/05/18 00:25:53;;;;;;;5.50;2.60;;;11.60;99.90;;;;;;4947420;28;20442;-75
2021/05/18 00:28:20;;;;;;;3.20;2.90;;;11.60;99.90;;;;;;4972032;28;20502;-75
2021/05/18 00:30:47;;;;;;;3.03;2.50;;;11.50;99.90;;;;;;4972767;28;20431;-77
2021/05/18 00:33:17;;;;;;;3.93;2.80;;;11.50;99.90;;;;;;4954781;28;20565;-75
2021/05/18 00:35:45;;;;;;;6.20;3.63;;;11.50;99.90;;;;;;4955070;28;20447;-75
2021/05/18 00:38:13;;;;;;;4.83;4.10;;;11.50;99.90;;;;;;4971568;28;20471;-75
2021/05/18 00:40:42;;;;;;;6.60;3.40;;;11.50;99.90;;;;;;4980100;28;20531;-74
2021/05/18 00:43:11;;;;;;;4.93;3.00;;;11.50;99.90;;;;;;4935947;28;20459;-73
2021/05/18 00:45:47;;;;;;;7.03;3.00;;;11.50;99.90;;;;;;4982598;28;20430;-74
2021/05/18 00:48:16;;;;;;;5.03;3.30;;;11.60;99.90;;;;;;4974176;28;20505;-74
2021/05/18 00:50:56;;;;;;;5.93;3.20;;;11.60;99.90;;;;;;4990392;28;20442;-75
2021/05/18 00:53:24;;;;;;;5.03;3.00;;;11.60;99.90;;;;;;4975892;28;20549;-75
2021/05/18 00:56:03;;;;;;;8.70;3.43;;;11.60;99.90;;;;;;4957934;28;20979;-75
2021/05/18 00:58:41;;;;;;;7.03;3.20;;;11.60;99.90;;;;;;4957906;28;20848;-73
2021/05/18 01:01:20;;;;;;;6.67;3.40;;;11.60;99.90;;;;;;4975821;28;20434;-75
2021/05/18 01:03:53;;;;;;;6.60;3.13;;;11.50;99.90;;;;;;4957188;28;20470;-74
2021/05/18 01:06:28;;;;;;;7.73;3.20;;;11.50;99.90;;;;;;4975865;28;20524;-74
2021/05/18 01:09:07;;;;;;;5.80;3.50;;;11.50;99.90;;;;;;4956767;28;20466;-71
2021/05/18 01:11:35;;;;;;;5.37;3.20;;;11.50;99.90;;;;;;4975639;28;20434;-74
2021/05/18 01:14:08;;;;;;;9.17;4.17;;;11.50;99.90;;;;;;4941515;28;20565;-76
2021/05/18 01:16:38;;;;;;;5.90;3.00;;;11.50;99.90;;;;;;4975317;28;20466;-76
2021/05/18 01:19:06;;;;;;;5.63;3.93;;;11.50;99.90;;;;;;4953395;28;20478;-76
2021/05/18 01:21:35;;;;;;;8.50;3.57;;;11.50;99.90;;;;;;4957939;28;20442;-72
2021/05/18 01:24:04;;;;;;;8.57;3.57;;;11.50;99.90;;;;;;4956759;28;20566;-75
2021/05/18 01:26:32;;;;;;;9.53;3.57;;;11.50;99.90;;;;;;4962922;28;21002;-73
2021/05/18 01:29:06;;;;;;;10.23;4.40;;;11.50;99.90;;;;;;4971399;28;20467;-73
2021/05/18 01:31:40;;;;;;;8.37;3.70;;;11.50;99.90;;;;;;4975257;28;20438;-76
2021/05/18 01:34:07;;;;;;;5.30;3.60;;;11.50;99.90;;;;;;4973195;28;20540;-73
2021/05/18 01:36:41;;;;;;;12.27;4.23;;;11.50;99.90;;;;;;4959136;28;20579;-75
2021/05/18 01:44:25;;;;;;;11.40;4.57;;;11.50;99.90;;;;;;4974336;28;20475;-75
2021/05/18 01:46:53;;;;;;;6.57;3.80;;;11.50;99.90;;;;;;4974552;28;20464;-75
2021/05/18 01:49:23;;;;;;;6.03;4.03;;;11.50;99.90;;;;;;4951375;28;20483;-74
2021/05/18 01:51:54;;;;;;;6.60;4.00;;;11.50;99.90;;;;;;4946836;28;20435;-77
2021/05/18 01:54:28;;;;;;;8.20;4.73;;;11.50;99.90;;;;;;4959707;28;20481;-73
2021/05/18 01:59:31;;;;;;;8.13;4.47;;;11.40;99.90;;;;;;4974557;28;20475;-72
2021/05/18 02:02:05;;;;;;;6.97;4.10;;;11.40;99.90;;;;;;4972574;28;20447;-73
2021/05/18 02:05:01;;;;;;;10.97;4.30;;;11.40;99.90;;;;;;4965811;28;20477;-77
2021/05/18 02:07:42;;;;;;;8.60;3.70;;;11.40;99.90;;;;;;4952118;28;20462;-75
2021/05/18 02:10:12;;;;;;;6.33;3.93;;;11.50;99.90;;;;;;4961274;28;20987;-77
2021/05/18 02:12:45;;;;;;;4.67;3.30;;;11.50;99.90;;;;;;4974171;28;20500;-73
2021/05/18 02:15:32;;;;;;;8.47;3.60;;;11.40;99.90;;;;;;4941592;28;20633;-75
2021/05/18 02:26:33;;;;;;;5.47;4.07;;;11.40;99.90;;;;;;4974286;28;20807;-73
2021/05/18 02:29:02;;;;;;;6.50;3.77;;;11.40;99.90;;;;;;4973496;28;20474;-73
2021/05/18 02:31:30;;;;;;;10.13;4.27;;;11.30;99.90;;;;;;4974729;28;20431;-73
2021/05/18 02:34:05;;;;;;;4.70;3.03;;;11.30;99.90;;;;;;4955300;28;20474;-75
2021/05/18 02:36:38;;;;;;;6.40;4.23;;;11.30;99.90;;;;;;4974011;28;20457;-77
2021/05/18 02:39:06;;;;;;;7.27;3.60;;;11.30;99.90;;;;;;4954955;28;20485;-76
2021/05/18 02:41:34;;;;;;;10.77;3.93;;;11.30;99.90;;;;;;4972494;28;20446;-75
2021/05/18 02:44:07;;;;;;;9.70;3.93;;;11.30;99.90;;;;;;4956007;28;20856;-76
2021/05/18 02:49:27;;;;;;;7.03;3.83;;;11.40;99.90;;;;;;4969938;28;20479;-75
2021/05/18 02:51:55;;;;;;;5.00;2.83;;;11.40;99.90;;;;;;4956513;28;20972;-75
2021/05/18 02:54:25;;;;;;;9.13;4.00;;;11.40;99.90;;;;;;4972855;28;20561;-73
2021/05/18 02:59:20;;;;;;;6.70;3.57;;;11.30;99.90;;;;;;4987177;28;20474;-75
2021/05/18 03:01:53;;;;;;;6.93;3.83;;;11.30;99.90;;;;;;4956162;28;20944;-74
2021/05/18 03:04:21;;;;;;;4.63;3.10;;;11.30;99.90;;;;;;4954694;28;20474;-75
2021/05/18 03:06:49;;;;;;;9.07;4.20;;;11.30;99.90;;;;;;4972024;28;20549;-75
2021/05/18 03:09:18;;;;;;;7.73;3.93;;;11.30;99.90;;;;;;4971588;28;20478;-77
2021/05/18 03:11:47;;;;;;;8.03;4.97;;;11.30;99.90;;;;;;4973314;28;20499;-75
2021/05/18 03:14:15;;;;;;;8.53;3.53;;;11.30;99.90;;;;;;4955586;28;20549;-74
2021/05/18 03:16:44;;;;;;;7.63;4.23;;;11.40;99.90;;;;;;4973418;28;20505;-75
2021/05/18 03:19:11;;;;;;;5.00;3.80;;;11.30;99.90;;;;;;4971738;28;20582;-75
2021/05/18 03:21:39;;;;;;;8.73;4.47;;;11.30;99.90;;;;;;4955808;28;20967;-72
2021/05/18 03:24:07;;;;;;;8.50;3.93;;;11.30;99.90;;;;;;4971945;28;20541;-76
2021/05/18 03:26:35;;;;;;;5.33;3.77;;;11.30;99.90;;;;;;4973272;28;20468;-75
2021/05/18 03:29:20;;;;;;;7.63;3.80;;;11.30;99.90;;;;;;4972345;28;20471;-73
2021/05/18 03:34:36;;;;;;;6.23;4.17;;;11.30;99.90;;;;;;4972577;28;20502;-74
2021/05/18 03:37:18;;;;;;;6.17;4.83;;;11.20;99.90;;;;;;4955121;28;20457;-74
2021/05/18 03:39:48;;;;;;;6.50;4.10;;;11.30;99.90;;;;;;4954914;28;20497;-72
2021/05/18 03:42:21;;;;;;;6.87;4.10;;;11.30;99.90;;;;;;4973116;28;20457;-73
2021/05/18 03:45:00;;;;;;;9.70;4.50;;;11.20;99.90;;;;;;4972440;28;20454;-75
2021/05/18 04:04:27;;;;;;;14.70;4.80;;;11.30;99.90;;;;;;4969849;28;20498;-76
2021/05/18 04:25:53;;;;;;;9.03;3.80;;;11.20;99.90;;;;;;4976053;28;20879;-79
2021/05/18 05:01:12;;;;;;;5.90;2.30;;;11.00;99.90;;;;;;4988292;28;20810;-85
2021/05/18 05:09:06;;;;;;;6.13;2.60;;;11.00;99.90;;;;;;4958056;28;20849;-83
2021/05/18 05:14:24;;;;;;;7.67;2.87;;;11.00;99.90;;;;;;4975029;28;20822;-80
2021/05/18 05:16:53;;;;;;;6.03;2.90;;;11.00;99.90;;;;;;4958586;28;20458;-82
2021/05/18 05:19:21;;;;;;;4.97;3.40;;;11.00;99.90;;;;;;4957320;28;20470;-80
2021/05/18 05:21:49;;;;;;;5.70;3.07;;;11.00;99.90;;;;;;4958418;28;20431;-81
2021/05/18 05:24:16;;;;;;;9.50;3.27;;;11.00;99.90;;;;;;4982153;28;20528;-83
2021/05/18 05:26:43;;;;;;;4.47;3.50;;;11.00;99.90;;;;;;4957940;28;20809;-83
2021/05/18 05:29:13;;;;;;;3.80;3.50;;;11.00;99.90;;;;;;4957639;28;20478;-86
2021/05/18 05:31:40;;;;;;;6.00;4.10;;;11.00;99.90;;;;;;4975455;28;20528;-83
2021/05/18 05:34:07;;;;;;;8.30;3.87;;;11.00;99.90;;;;;;4957638;28;20555;-84
2021/05/18 05:36:34;;;;;;;4.70;3.70;;;11.00;99.90;;;;;;4976826;28;20458;-84
2021/05/18 05:39:08;;;;;;;7.97;5.17;;;11.00;99.90;;;;;;4980136;28;20482;-84
2021/05/18 05:41:36;;;;;;;6.83;4.43;;;11.00;99.90;;;;;;4958053;28;20546;-85
2021/05/18 05:44:04;;;;;;;8.27;5.10;;;11.00;99.90;;;;;;4957232;28;21063;-83
2021/05/18 05:46:32;;;;;;;5.00;4.30;;;10.90;99.90;;;;;;4960049;28;20525;-83
2021/05/18 05:48:59;;;;;;;6.90;5.17;;;11.00;99.90;;;;;;4974047;28;21070;-84
2021/05/18 05:51:28;;;;;;;6.87;5.17;;;11.00;99.90;;;;;;4958400;28;20430;-81
2021/05/18 05:53:58;;;;;;;10.53;5.50;;;11.10;99.90;;;;;;4957759;28;20507;-83
2021/05/18 05:56:27;;;;;;;7.50;5.20;;;11.10;99.90;;;;;;4973544;28;20811;-81
2021/05/18 05:58:54;;;;;;;13.53;7.30;;;11.10;99.90;;;;;;4967424;28;20468;-85
2021/05/18 06:01:22;;;;;;;8.60;6.13;;;11.10;99.90;;;;;;4929157;29;20440;-85
2021/05/18 06:03:49;;;;;;;11.23;6.70;;;11.10;99.90;;;;;;4953528;28;20494;-84
2021/05/18 06:06:15;;;;;;;17.80;7.13;;;11.20;99.90;;;;;;4965145;28;21066;-83
2021/05/18 06:08:45;;;;;;;12.90;6.00;;;11.20;99.90;;;;;;4956791;28;20498;-80
2021/05/18 06:11:24;;;;;;;8.77;6.70;;;11.30;99.90;;;;;;4974907;28;20474;-80
2021/05/18 06:14:11;;;;;;;12.10;6.00;;;11.30;99.90;;;;;;4959066;28;20483;-82
2021/05/18 06:17:11;;;;;;;10.77;6.73;;;11.30;99.90;;;;;;4975039;28;20466;-81
2021/05/18 06:47:34;;;;;;;7.57;6.87;;;11.80;99.90;;;;;;4981497;28;20919;-81
2021/05/18 06:52:38;;;;;;;12.40;8.03;;;12.00;99.90;;;;;;4976785;28;20458;-80
2021/05/18 06:55:09;;;;;;;16.93;8.67;;;12.00;99.90;;;;;;4939879;28;20473;-81
2021/05/18 06:57:46;;;;;;;10.60;7.67;;;12.00;99.90;;;;;;4955406;28;20461;-81
2021/05/18 07:00:18;;;;;;;9.90;7.33;;;12.00;99.90;;;;;;4955787;28;20870;-82
2021/05/18 07:02:51;;;;;;;9.30;7.73;;;11.90;99.90;;;;;;4955813;28;20509;-81
2021/05/18 07:10:39;;;;;;;14.80;8.40;;;12.00;99.90;;;;;;4939528;28;20438;-80
2021/05/18 07:13:06;;;;;;;15.30;9.07;;;12.10;99.90;;;;;;4955535;28;20498;-79
2021/05/18 07:15:33;;;;;;;9.03;7.80;;;12.20;99.90;;;;;;4973396;28;20497;-80
2021/05/18 07:18:00;;;;;;;13.63;9.23;;;12.20;99.90;;;;;;4971828;28;20463;-80
2021/05/18 07:20:29;;;;;;;10.50;8.87;;;12.20;99.90;;;;;;4955917;28;20471;-78
2021/05/18 07:22:59;;;;;;;12.37;8.73;;;12.30;99.90;;;;;;4972242;28;20980;-78
2021/05/18 07:25:29;;;;;;;16.20;9.80;;;12.40;99.90;;;;;;4984682;28;20538;-79
2021/05/18 07:27:56;;;;;;;10.07;8.53;;;12.50;99.90;;;;;;4946620;28;20478;-78
2021/05/18 07:30:23;;;;;;;11.37;8.30;;;12.60;99.90;;;;;;4938163;28;20447;-77
2021/05/18 07:32:53;;;;;;;11.97;8.40;;;12.60;99.90;;;;;;4983948;28;20534;-78
2021/05/18 07:35:22;;;;;;;11.10;9.13;;;12.80;99.90;;;;;;4967362;28;20474;-77
2021/05/18 07:37:49;;;;;;;12.40;8.73;;;13.00;99.90;;;;;;4954318;28;20471;-77
2021/05/18 07:40:16;;;;;;;10.47;8.83;;;13.10;99.90;;;;;;4971697;28;20509;-76
2021/05/18 07:42:43;;;;;;;11.57;8.80;;;13.20;99.90;;;;;;4955486;28;20459;-75
2021/05/18 07:45:11;;;;;;;11.83;9.20;;;13.30;99.90;;;;;;4974938;28;20430;-77
2021/05/18 07:47:40;;;;;;;10.97;9.07;;;13.30;99.90;;;;;;4959989;28;20553;-78
2021/05/18 07:50:11;;;;;;;9.90;8.70;;;13.20;99.90;;;;;;4954267;28;20461;-78
2021/05/18 08:06:25;;;;;;;9.20;7.47;;;13.40;99.90;;;;;;4958671;28;20980;-77
2021/05/18 08:08:52;;;;;;;11.00;8.23;;;13.50;99.90;;;;;;4971104;28;20471;-78
2021/05/18 08:11:19;;;;;;;8.90;8.00;;;13.60;99.90;;;;;;4969368;28;20463;-76
2021/05/18 08:13:55;;;;;;;12.20;6.83;;;13.50;99.90;;;;;;4971547;28;20474;-76
2021/05/18 09:29:50;;;;;;;7.93;4.03;;;11.90;99.90;;;;;;4974506;28;20467;-84
2021/05/18 10:37:46;;;;;;;2.30;1.90;;;12.70;99.90;;;;;;4925998;29;20543;-83
2021/05/18 10:40:16;;;;;;;2.63;1.97;;;12.70;99.90;;;;;;4923412;29;20480;-83
2021/05/18 10:43:18;;;;;;;2.47;2.23;;;12.70;99.90;;;;;;4946592;28;20466;-84
2021/05/18 10:46:01;;;;;;;2.10;1.93;;;12.80;99.90;;;;;;4961618;28;20430;-83
2021/05/18 10:48:31;;;;;;;2.73;2.50;;;12.90;99.90;;;;;;4956041;28;20521;-79
2021/05/18 10:51:23;;;;;;;3.83;3.43;;;13.20;99.90;;;;;;4957238;28;20496;-79
2021/05/18 10:54:08;;;;;;;3.80;2.93;;;13.60;99.90;;;;;;4961888;28;21009;-77
2021/05/18 10:57:00;;;;;;;3.47;3.17;;;13.90;99.90;;;;;;4959923;28;20546;-79
2021/05/18 10:59:35;;;;;;;4.13;2.43;;;14.10;99.90;;;;;;4952607;29;20657;-79
2021/05/18 11:02:17;;;;;;;3.97;3.57;;;14.10;99.90;;;;;;4963055;28;20474;-78
2021/05/18 11:04:45;;;;;;;3.17;2.70;;;14.10;99.90;;;;;;4956034;28;20475;-77
2021/05/18 11:07:21;;;;;;;3.47;2.67;;;14.20;99.90;;;;;;4955824;28;20558;-77
2021/05/18 11:09:50;;;;;;;4.63;2.97;;;14.10;99.90;;;;;;4972012;28;20471;-78
2021/05/18 11:12:19;;;;;;;2.60;2.40;;;14.10;99.90;;;;;;4940331;28;20871;-77
2021/05/18 11:15:02;;;;;;;5.87;3.20;;;14.30;99.90;;;;;;4973044;28;20477;-76
2021/05/18 11:17:34;;;;;;;3.87;3.03;;;14.40;99.90;;;;;;4971996;28;20456;-78
2021/05/18 11:21:08;;;;;;;3.43;3.13;;;14.40;99.90;;;;;;4974151;28;20451;-79
2021/05/18 11:23:31;;;;;;;4.10;2.93;;;14.60;99.90;;;;;;4953250;28;20728;-79
2021/05/18 11:26:05;;;;;;;4.70;4.10;;;14.70;99.90;;;;;;4972629;28;20450;-78
2021/05/18 11:28:38;;;;;;;5.03;4.57;;;14.90;99.90;;;;;;4963817;28;20485;-78
2021/05/18 11:31:28;;;;;;;3.20;2.90;;;;;;;;;;4963680;28;20438;-79
2021/05/18 11:34:02;;;;;;;3.10;2.90;;;15.20;99.90;;;;;;4971410;28;20512;-78
2021/05/18 11:36:48;;;;;;;4.23;3.83;;;15.30;99.90;;;;;;4954083;28;20465;-75
2021/05/18 11:39:16;;;;;;;5.43;4.30;;;15.40;99.90;;;;;;4971466;28;20539;-75
2021/05/18 11:41:45;;;;;;;4.40;4.00;;;15.40;99.90;;;;;;4973037;28;20573;-74
2021/05/18 11:44:14;;;;;;;4.77;4.30;;;15.30;99.90;;;;;;4986914;28;21049;-73
2021/05/18 11:46:51;;;;;;;4.10;3.70;;;15.40;99.90;;;;;;4947748;28;20453;-73
2021/05/18 11:49:19;;;;;;;8.67;7.57;;;15.30;99.90;;;;;;4971841;28;20879;-75
2021/05/18 11:51:48;;;;;;;8.00;7.17;;;15.30;99.90;;;;;;4955850;28;20540;-74
2021/05/18 11:54:28;;;;;;;7.87;5.47;;;15.30;99.90;;;;;;4967647;28;20551;-73
2021/05/18 11:56:57;;;;;;;6.50;5.03;;;15.40;99.90;;;;;;4972962;28;20454;-74
2021/05/18 11:59:26;;;;;;;5.63;4.47;;;15.40;99.90;;;;;;4972030;28;20474;-73
2021/05/18 12:02:05;;;;;;;4.53;4.13;;;15.30;99.90;;;;;;4972648;28;20971;-73
2021/05/18 12:04:39;;;;;;;5.50;4.90;;;15.30;99.90;;;;;;4953860;28;20496;-73
2021/05/18 12:07:10;;;;;;;6.80;4.40;;;15.20;99.90;;;;;;4971068;28;20801;-73
2021/05/18 12:09:47;;;;;;;5.13;4.73;;;15.10;99.90;;;;;;4967772;28;20502;-75
2021/05/18 12:12:15;;;;;;;5.60;5.10;;;15.00;99.90;;;;;;4923024;29;20459;-74
2021/05/18 12:14:49;;;;;;;6.07;5.53;;;14.90;99.90;;;;;;4937336;28;20485;-73
2021/05/18 12:17:28;;;;;;;7.73;6.10;;;14.90;99.90;;;;;;4962239;28;20491;-77
2021/05/18 12:19:55;;;;;;;10.37;6.60;;;15.10;99.90;;;;;;4957127;28;20489;-75
2021/05/18 12:22:22;;;;;;;6.57;5.90;;;15.10;99.90;;;;;;4952309;28;20471;-75
2021/05/18 12:24:51;;;;;;;6.30;5.70;;;15.30;99.90;;;;;;4928171;29;20478;-74
2021/05/18 12:27:18;;;;;;;5.20;4.43;;;15.30;99.90;;;;;;4933016;29;20502;-73
2021/05/18 12:29:54;;;;;;;4.40;4.00;;;15.50;99.90;;;;;;4946543;29;20873;-75
2021/05/18 12:32:30;;;;;;;5.87;3.97;;;15.70;99.90;;;;;;4980655;28;20814;-72
2021/05/18 12:35:03;;;;;;;3.90;3.57;;;15.80;99.90;;;;;;4970434;28;20446;-74
2021/05/18 12:37:44;;;;;;;4.00;3.70;;;15.80;99.90;;;;;;4955472;28;20516;-72
2021/05/18 12:40:26;;;;;;;5.07;4.10;;;16.00;99.90;;;;;;4986878;28;20445;-72
2021/05/18 12:43:05;;;;;;;3.93;3.63;;;16.20;99.90;;;;;;4946415;28;20490;-75
2021/05/18 12:45:32;;;;;;;4.30;3.33;;;16.30;99.90;;;;;;4990742;28;20438;-76
2021/05/18 12:48:01;;;;;;;4.37;3.70;;;16.30;99.70;;;;;;4945843;28;20506;-73
2021/05/18 12:50:54;;;;;;;3.70;3.33;;;16.30;97.70;;;;;;4958547;28;20811;-76
2021/05/18 12:53:29;;;;;;;3.80;2.90;;;16.20;95.00;;;;;;4956360;28;20832;-75
2021/05/18 12:55:57;;;;;;;4.33;3.93;;;16.00;97.30;;;;;;4975227;28;20442;-72
2021/05/18 12:58:31;;;;;;;4.43;3.60;;;15.90;97.90;;;;;;4955075;28;20863;-73
2021/05/18 13:01:16;;;;;;;3.70;3.40;;;15.80;96.60;;;;;;4972598;28;20472;-74
2021/05/18 13:03:44;;;;;;;5.80;4.17;;;15.70;96.50;;;;;;4956584;28;20479;-72
2021/05/18 13:06:13;;;;;;;4.67;4.23;;;15.50;99.10;;;;;;4975679;28;20488;-72
2021/05/18 13:08:41;;;;;;;5.10;4.43;;;15.40;98.40;;;;;;4957595;28;20490;-72
2021/05/18 13:13:56;;;;;;;7.27;4.63;;;15.20;99.40;;;;;;4945678;29;20506;-73
2021/05/18 13:16:34;;;;;;;5.20;4.50;;;15.10;99.60;;;;;;4935521;29;20881;-74
2021/05/18 13:19:03;;;;;;;5.13;4.30;;;15.10;99.00;;;;;;4944424;28;20480;-74
2021/05/18 13:21:44;;;;;;;3.77;3.37;;;15.10;99.00;;;;;;4956257;29;20469;-75
2021/05/18 13:26:51;;;;;;;4.73;3.87;;;15.10;99.00;;;;;;4969661;28;20462;-73
2021/05/18 13:29:19;;;;;;;4.20;3.90;;;15.10;99.20;;;;;;4943913;29;20479;-76
2021/05/18 13:31:49;;;;;;;7.60;3.57;;;15.20;98.60;;;;;;4920545;29;20439;-74
2021/05/18 13:34:36;;;;;;;2.93;2.63;;;15.30;98.70;;;;;;4969319;28;20491;-74
2021/05/18 13:37:03;;;;;;;2.80;2.60;;;15.30;98.90;;;;;;4938631;29;20465;-74
2021/05/18 13:39:32;;;;;;;4.00;3.60;;;15.50;98.40;;;;;;4972246;28;21046;-74
2021/05/18 13:42:02;;;;;;;5.47;3.20;;;15.70;97.00;;;;;;4957863;28;20463;-72
2021/05/18 13:44:29;;;;;;;5.70;3.70;;;15.80;96.40;;;;;;4975039;28;20471;-75
2021/05/18 13:46:57;;;;;;;4.40;4.10;;;16.10;96.30;;;;;;4958632;28;20518;-72
2021/05/18 13:49:24;;;;;;;4.37;3.70;;;16.20;95.20;;;;;;4973242;28;20469;-76
2021/05/18 13:51:52;;;;;;;6.30;3.50;;;16.30;95.90;;;;;;4955122;29;20444;-74
2021/05/18 13:54:36;;;;;;;6.70;4.03;;;16.40;93.80;;;;;;4962815;28;20538;-72
2021/05/18 13:57:03;;;;;;;5.03;4.53;;;16.40;94.80;;;;;;4973676;28;20456;-73
2021/05/18 13:59:34;;;;;;;4.27;3.87;;;16.50;93.60;;;;;;4974416;28;20559;-74
2021/05/18 14:02:01;;;;;;;3.93;3.53;;;16.60;93.00;;;;;;4957619;28;20571;-72
2021/05/18 14:04:29;;;;;;;5.00;4.50;;;16.60;93.00;;;;;;4956688;28;20876;-77
2021/05/18 14:10:34;;;;;;;5.30;3.93;;;16.80;93.50;;;;;;4886229;29;20468;-72
2021/05/18 14:13:01;;;;;;;4.90;4.50;;;17.00;90.40;;;;;;4957447;28;20467;-74
2021/05/18 14:15:28;;;;;;;4.33;3.43;;;17.10;90.10;;;;;;4957324;28;20467;-73
2021/05/18 14:17:55;;;;;;;8.00;4.13;;;17.20;83.90;;;;;;4977268;28;20478;-74
2021/05/18 14:20:22;;;;;;;5.77;3.70;;;17.30;85.20;;;;;;4973488;28;20439;-72
2021/05/18 14:22:50;;;;;;;6.10;3.80;;;17.40;86.40;;;;;;4948944;28;20466;-73
2021/05/18 14:25:23;;;;;;;5.90;5.20;;;17.50;84.20;;;;;;4956594;28;20870;-73
2021/05/18 14:28:03;;;;;;;6.43;4.50;;;17.50;84.60;;;;;;4968126;28;20490;-73
2021/05/18 14:30:31;;;;;;;5.53;4.80;;;17.40;83.00;;;;;;4955102;28;20495;-76
2021/05/18 14:32:58;;;;;;;5.57;4.80;;;17.20;82.30;;;;;;4939716;28;20468;-76
2021/05/18 14:35:28;;;;;;;5.47;4.00;;;16.90;87.30;;;;;;4974080;28;20833;-74
2021/05/18 14:38:16;;;;;;;7.97;5.17;;;16.60;91.40;;;;;;4957228;28;20495;-73
2021/05/18 14:46:17;;;;;;;8.17;7.37;;;15.50;99.90;;;;;;4971756;28;20432;-81
2021/05/18 14:56:58;;;;;;;8.27;7.50;;;14.30;99.90;;;;;;4973434;28;21058;-74
2021/05/18 14:59:25;;;;;;;9.73;8.83;;;14.20;99.90;;;;;;4955419;28;20568;-74
2021/05/18 15:01:52;;;;;;;9.33;7.93;;;14.10;99.90;;;;;;4955416;28;20989;-73
2021/05/18 15:04:19;;;;;;;9.13;7.90;;;13.90;99.90;;;;;;4976133;28;20473;-74
2021/05/18 15:06:46;;;;;;;9.43;8.47;;;13.80;99.90;;;;;;4961110;28;20460;-75
2021/05/18 15:09:15;;;;;;;10.20;7.60;;;13.80;99.90;;;;;;4952886;28;20846;-74
2021/05/18 15:11:43;;;;;;;10.13;9.17;;;13.80;99.90;;;;;;4972111;28;20785;-72
2021/05/18 15:14:10;;;;;;;10.03;8.80;;;13.80;99.90;;;;;;4955298;28;20472;-75
2021/05/18 15:16:37;;;;;;;9.90;8.90;;;13.80;99.90;;;;;;4973349;28;20456;-73
2021/05/18 15:19:16;;;;;;;9.20;8.30;;;13.80;99.90;;;;;;4971365;28;20841;-74
2021/05/18 15:21:43;;;;;;;9.83;8.83;;;13.90;99.90;;;;;;4973331;28;20571;-73
2021/05/18 15:24:11;;;;;;;9.93;9.00;;;13.80;99.90;;;;;;4972490;28;20477;-73
2021/05/18 15:26:38;;;;;;;11.73;9.30;;;13.80;99.90;;;;;;4956086;28;20492;-74
2021/05/18 15:29:05;;;;;;;10.67;9.60;;;13.90;99.90;;;;;;4972460;28;20569;-74
2021/05/18 15:31:33;;;;;;;10.90;9.80;;;14.00;99.90;;;;;;4955526;28;20491;-73
2021/05/18 15:34:00;;;;;;;10.67;9.50;;;14.00;99.90;;;;;;4967078;28;20508;-71
2021/05/18 15:36:28;;;;;;;11.03;9.93;;;14.00;99.90;;;;;;4955893;28;21009;-74
2021/05/18 15:38:56;;;;;;;10.30;9.30;;;14.00;99.90;;;;;;4953958;28;20501;-73
2021/05/18 15:41:22;;;;;;;12.63;10.80;;;14.00;99.90;;;;;;4972604;28;20444;-74
2021/05/18 15:43:49;;;;;;;11.40;10.40;;;14.00;99.90;;;;;;4954774;28;20471;-73
2021/05/18 15:46:16;;;;;;;11.80;10.60;;;14.00;99.90;;;;;;4972210;28;20551;-73
2021/05/18 15:48:43;;;;;;;12.00;10.83;;;13.90;99.90;;;;;;4969726;28;20467;-73
2021/05/18 15:51:10;;;;;;;12.17;11.07;;;13.80;99.90;;;;;;4949051;28;20532;-73
2021/05/18 15:53:37;;;;;;;11.50;10.33;;;13.80;99.90;;;;;;4971563;28;20565;-75
2021/05/18 15:56:05;;;;;;;10.30;9.40;;;13.80;99.90;;;;;;4953880;28;20502;-73
2021/05/18 15:58:32;;;;;;;11.10;10.00;;;13.80;99.90;;;;;;4953632;28;20495;-73
2021/05/18 16:01:02;;;;;;;9.23;8.33;;;13.70;99.90;;;;;;4971942;28;20428;-72
2021/05/18 16:03:29;;;;;;;9.03;8.13;;;13.90;99.90;;;;;;4953845;28;20485;-73
2021/05/18 16:06:00;;;;;;;10.67;9.57;;;14.00;99.90;;;;;;4972026;28;20436;-74
2021/05/18 16:10:59;;;;;;;10.70;9.70;;;14.20;99.90;;;;;;4970603;28;20512;-74
2021/05/18 16:13:27;;;;;;;11.93;10.83;;;14.10;99.90;;;;;;4954097;28;20555;-74
2021/05/18 16:16:04;;;;;;;14.93;11.10;;;14.10;99.90;;;;;;4971687;28;20444;-74
2021/05/18 16:18:34;;;;;;;11.37;10.30;;;14.20;99.90;;;;;;4955322;28;20985;-74
2021/05/18 16:21:02;;;;;;;10.60;9.70;;;14.30;99.90;;;;;;4975457;28;20450;-74
2021/05/18 16:23:29;;;;;;;10.23;9.33;;;14.30;99.90;;;;;;4957075;28;20983;-74
2021/05/18 16:25:57;;;;;;;9.60;8.70;;;14.30;99.90;;;;;;4971309;28;20449;-74
2021/05/18 16:28:25;;;;;;;10.70;9.60;;;14.30;99.90;;;;;;4956701;28;20554;-73
2021/05/18 16:30:52;;;;;;;11.27;10.27;;;14.40;99.90;;;;;;4957741;28;20442;-73
2021/05/18 16:33:21;;;;;;;11.80;10.57;;;14.40;99.90;;;;;;4951727;28;20495;-73
2021/05/18 16:35:48;;;;;;;10.13;9.23;;;14.20;99.90;;;;;;4989337;28;20474;-74
2021/05/18 16:38:16;;;;;;;10.87;9.77;;;14.20;99.90;;;;;;4972568;28;21045;-73
2021/05/18 16:40:43;;;;;;;11.93;9.67;;;14.20;99.90;;;;;;4973934;28;20962;-73
2021/05/18 16:43:13;;;;;;;9.47;8.67;;;14.10;99.90;;;;;;4954492;28;606910;-74
2021/05/18 16:45:44;;;;;;;10.27;9.33;;;14.00;99.90;;;;;;4958972;28;20452;-72
2021/05/18 16:48:13;;;;;;;10.40;9.40;;;14.00;99.90;;;;;;4973990;28;20530;-74
2021/05/18 16:50:40;;;;;;;11.10;10.00;;;13.90;99.90;;;;;;4975998;28;20464;-73
2021/05/18 16:53:09;;;;;;;11.07;10.07;;;13.90;99.90;;;;;;4975807;28;20580;-74
2021/05/18 16:55:37;;;;;;;10.40;9.47;;;13.90;99.90;;;;;;4976598;28;20459;-74
2021/05/18 16:58:04;;;;;;;10.93;9.90;;;14.00;99.90;;;;;;4973549;28;20469;-74
2021/05/18 17:00:32;;;;;;;10.87;9.77;;;14.00;99.90;;;;;;4974684;28;20474;-74
2021/05/18 17:02:59;;;;;;;11.17;10.10;;;14.00;99.90;;;;;;4950725;28;20526;-74
2021/05/18 17:05:30;;;;;;;9.50;8.60;;;13.90;99.90;;;;;;4952882;29;20507;-74
2021/05/18 17:08:02;;;;;;;10.13;9.00;;;13.90;99.90;;;;;;4942976;28;20567;-74
2021/05/18 17:10:38;;;;;;;11.47;10.47;;;13.80;99.90;;;;;;4956165;28;20547;-74
2021/05/18 17:13:06;;;;;;;10.00;9.00;;;13.80;99.90;;;;;;4974895;28;20463;-74
2021/05/18 17:15:33;;;;;;;10.50;9.50;;;13.80;99.90;;;;;;4957840;28;20446;-74
2021/05/18 17:18:03;;;;;;;11.17;10.10;;;13.80;99.90;;;;;;4944662;28;20605;-74
2021/05/18 17:20:33;;;;;;;12.07;10.80;;;13.70;99.90;;;;;;4960307;28;20551;-74
2021/05/18 17:23:04;;;;;;;10.07;9.17;;;13.60;99.90;;;;;;4956906;28;20828;-74
2021/05/18 17:25:33;;;;;;;11.80;10.73;;;13.60;99.90;;;;;;4976720;28;20462;-74
2021/05/18 17:28:00;;;;;;;11.73;10.67;;;13.50;99.90;;;;;;4945384;28;20555;-74
2021/05/18 17:30:28;;;;;;;10.50;9.37;;;13.50;99.90;;;;;;4968984;28;20447;-74
2021/05/18 17:32:55;;;;;;;11.40;10.30;;;13.60;99.90;;;;;;4958835;28;20590;-73
2021/05/18 17:35:23;;;;;;;11.30;10.20;;;13.50;99.90;;;;;;4972043;28;20443;-74
2021/05/18 17:37:53;;;;;;;13.77;11.80;;;13.50;99.90;;;;;;4957037;28;20466;-73
2021/05/18 17:40:20;;;;;;;12.17;11.07;;;13.50;99.90;;;;;;4974647;28;20442;-74
2021/05/18 17:42:47;;;;;;;13.73;12.50;;;13.50;99.90;;;;;;4957406;28;20478;-74
2021/05/18 17:45:15;;;;;;;12.97;11.87;;;13.50;99.90;;;;;;4974878;28;20436;-74
2021/05/18 17:47:43;;;;;;;13.70;12.43;;;13.50;99.90;;;;;;4974285;28;20467;-73
2021/05/18 17:50:15;;;;;;;12.47;11.37;;;13.40;99.90;;;;;;4957425;28;20474;-74
2021/05/18 17:52:45;;;;;;;13.03;11.73;;;13.40;99.90;;;;;;4957304;28;20878;-74
2021/05/18 17:55:14;;;;;;;12.97;11.73;;;13.40;99.90;;;;;;4973356;28;21009;-75
2021/05/18 17:57:42;;;;;;;12.80;11.60;;;13.40;99.90;;;;;;4974254;28;20455;-73
2021/05/18 18:00:11;;;;;;;12.93;11.73;;;13.40;99.90;;;;;;4957216;28;20463;-73
2021/05/18 18:02:42;;;;;;;15.27;13.77;;;13.40;99.90;;;;;;4957535;28;20464;-73
2021/05/18 18:05:10;;;;;;;16.03;12.70;;;13.30;99.90;;;;;;4959059;28;20498;-74
2021/05/18 18:07:40;;;;;;;15.20;13.80;;;13.30;99.90;;;;;;4956810;28;20555;-74
2021/05/18 18:10:08;;;;;;;12.87;11.67;;;13.30;99.90;;;;;;4956761;28;20459;-73
2021/05/18 18:12:35;;;;;;;13.03;11.77;;;13.30;99.90;;;;;;4956922;28;20434;-73
2021/05/18 18:15:04;;;;;;;13.83;12.43;;;13.20;99.90;;;;;;4981009;28;20805;-74
2021/05/18 18:17:31;;;;;;;14.53;13.00;;;13.20;99.90;;;;;;4957960;28;20457;-73
2021/05/18 18:20:00;;;;;;;15.87;14.17;;;13.10;99.90;;;;;;4958540;28;20901;-74